Time;durP1;ratioP1;P1;durP2;ratioP2;P2;SDS_P1;SDS_P2;PMS_P1;PMS_P2;Temp;Humidity;BMP_temperature;BMP_pressure;BME280_temperature;BME280_humidity;BME280_pressure;Samples;Min_cycle;Max_cycle;Signal;HPM_P1;HPM_P2
2021/03/24 00:00:41;;;;;;;24.03;11.63;;;9.10;44.10;;;;;;5080336;28;20450;-87
2021/03/24 00:03:08;;;;;;;22.40;12.60;;;9.20;42.80;;;;;;5079713;28;20466;-86
2021/03/24 00:05:39;;;;;;;22.47;13.10;;;9.60;44.20;;;;;;5075372;28;20906;-86
2021/03/24 00:08:07;;;;;;;19.73;11.97;;;10.00;42.40;;;;;;5075359;28;20495;-86
2021/03/24 00:10:35;;;;;;;26.80;13.43;;;10.10;40.50;;;;;;5075183;28;20464;-86
2021/03/24 00:13:03;;;;;;;19.53;11.33;;;10.00;40.40;;;;;;5088936;28;20509;-86
2021/03/24 00:15:29;;;;;;;27.83;12.20;;;10.10;42.00;;;;;;5084835;28;20723;-86
2021/03/24 00:17:56;;;;;;;19.57;10.50;;;10.20;40.20;;;;;;5081559;28;20808;-86
2021/03/24 00:20:26;;;;;;;25.90;12.40;;;9.80;42.00;;;;;;5078841;28;20534;-86
2021/03/24 00:22:54;;;;;;;20.77;11.50;;;9.10;40.70;;;;;;5079243;28;20802;-86
2021/03/24 00:25:20;;;;;;;22.97;13.13;;;9.10;44.00;;;;;;5082309;28;20451;-86
2021/03/24 00:27:49;;;;;;;24.77;11.47;;;8.50;42.70;;;;;;5085006;28;20443;-86
2021/03/24 00:30:18;;;;;;;19.20;10.00;;;8.80;43.70;;;;;;5082613;28;20467;-86
2021/03/24 00:32:45;;;;;;;20.93;11.60;;;9.00;45.00;;;;;;5091253;28;20506;-86
2021/03/24 00:35:12;;;;;;;18.97;11.20;;;9.80;45.30;;;;;;5087208;28;20467;-86
2021/03/24 00:37:39;;;;;;;23.17;13.40;;;10.00;41.50;;;;;;5093075;28;20761;-86
2021/03/24 00:40:09;;;;;;;21.50;12.57;;;9.90;40.10;;;;;;5080114;28;20528;-86
2021/03/24 00:42:36;;;;;;;20.50;11.13;;;9.70;43.30;;;;;;5079204;28;20475;-86
2021/03/24 00:45:04;;;;;;;21.50;13.10;;;9.70;42.60;;;;;;5078288;28;20443;-86
2021/03/24 00:47:30;;;;;;;19.73;9.93;;;9.60;40.10;;;;;;5078487;28;20987;-86
2021/03/24 00:49:57;;;;;;;22.43;13.30;;;9.70;43.30;;;;;;5076178;28;20485;-87
2021/03/24 00:52:23;;;;;;;35.20;14.30;;;9.10;41.20;;;;;;5075686;28;20626;-86
2021/03/24 00:54:49;;;;;;;19.60;12.23;;;8.80;41.90;;;;;;5077691;28;20955;-86
2021/03/24 00:57:18;;;;;;;27.27;12.53;;;8.70;44.70;;;;;;5076987;28;20530;-86
2021/03/24 00:59:44;;;;;;;18.47;10.07;;;8.80;43.80;;;;;;5077582;28;20427;-86
2021/03/24 01:02:11;;;;;;;19.33;10.50;;;9.10;44.90;;;;;;5076486;28;20856;-86
2021/03/24 01:04:37;;;;;;;21.60;11.67;;;9.60;44.50;;;;;;5080948;28;20941;-87
2021/03/24 01:07:05;;;;;;;18.57;10.43;;;9.90;44.40;;;;;;5076818;28;20534;-87
2021/03/24 01:09:31;;;;;;;18.73;12.00;;;10.40;42.30;;;;;;5077168;28;20474;-87
2021/03/24 01:11:57;;;;;;;24.40;11.40;;;10.30;38.90;;;;;;5077701;28;20522;-87
2021/03/24 01:14:25;;;;;;;26.23;15.13;;;10.20;40.80;;;;;;5077272;28;20785;-87
2021/03/24 01:16:51;;;;;;;19.83;11.07;;;9.80;40.40;;;;;;5079440;28;20423;-87
2021/03/24 01:19:18;;;;;;;15.60;10.27;;;10.10;41.50;;;;;;5090317;28;20432;-87
2021/03/24 01:21:44;;;;;;;23.33;11.67;;;9.60;42.80;;;;;;5079002;28;20452;-87
2021/03/24 01:24:10;;;;;;;25.97;13.80;;;9.50;42.70;;;;;;5075318;28;20534;-87
2021/03/24 01:26:37;;;;;;;34.33;11.73;;;9.20;40.30;;;;;;5076284;28;20550;-87
2021/03/24 01:29:05;;;;;;;18.67;11.80;;;8.30;42.90;;;;;;5076296;28;20454;-87
2021/03/24 01:31:33;;;;;;;23.80;11.63;;;7.90;44.00;;;;;;5076557;28;20448;-87
2021/03/24 01:34:01;;;;;;;36.10;13.97;;;8.20;45.10;;;;;;5076336;28;20448;-87
2021/03/24 01:36:28;;;;;;;25.93;12.77;;;7.50;42.50;;;;;;5076029;28;20446;-87
2021/03/24 01:38:55;;;;;;;19.67;12.37;;;7.90;45.60;;;;;;5076487;28;20435;-86
2021/03/24 01:41:24;;;;;;;20.90;11.73;;;8.30;43.60;;;;;;5075955;28;20517;-87
2021/03/24 01:43:51;;;;;;;20.90;11.20;;;8.50;43.10;;;;;;5076251;28;20923;-87
2021/03/24 01:46:43;;;;;;;20.10;10.93;;;8.70;44.30;;;;;;5076228;28;20954;-87
2021/03/24 01:49:22;;;;;;;34.20;11.90;;;9.10;42.80;;;;;;5076333;28;20896;-87
2021/03/24 01:51:51;;;;;;;15.97;10.07;;;9.00;43.80;;;;;;5077034;28;21090;-87
2021/03/24 01:54:20;;;;;;;14.40;9.40;;;9.40;44.10;;;;;;5096728;28;20459;-87
2021/03/24 01:56:52;;;;;;;15.83;9.40;;;9.90;44.20;;;;;;5097314;28;20448;-87
2021/03/24 01:59:19;;;;;;;28.87;12.33;;;10.10;42.20;;;;;;5097436;28;20438;-87
2021/03/24 02:01:46;;;;;;;26.30;11.00;;;10.00;42.10;;;;;;5096385;28;20475;-87
2021/03/24 02:04:12;;;;;;;21.57;12.20;;;9.70;40.80;;;;;;5097868;28;20431;-86
2021/03/24 02:06:45;;;;;;;23.87;12.33;;;8.90;41.10;;;;;;5096853;28;20443;-87
2021/03/24 02:09:33;;;;;;;22.53;12.73;;;7.80;42.10;;;;;;5079945;28;20439;-87
2021/03/24 02:12:05;;;;;;;21.40;11.93;;;7.30;42.70;;;;;;5081023;28;20559;-87
2021/03/24 02:14:37;;;;;;;27.53;12.43;;;6.90;43.70;;;;;;5084999;28;20442;-87
2021/03/24 02:17:06;;;;;;;25.93;12.50;;;7.10;45.20;;;;;;5097238;28;20420;-87
2021/03/24 02:19:44;;;;;;;24.90;14.03;;;7.30;45.50;;;;;;5096715;28;20531;-87
2021/03/24 02:22:14;;;;;;;21.50;10.27;;;7.30;43.50;;;;;;5096572;28;20488;-86
2021/03/24 02:24:48;;;;;;;20.53;10.10;;;7.70;45.00;;;;;;5092083;28;20509;-87
2021/03/24 02:27:18;;;;;;;17.47;10.77;;;8.30;46.30;;;;;;5078446;28;20463;-87
2021/03/24 02:29:50;;;;;;;19.30;10.33;;;9.20;45.90;;;;;;5077791;28;20419;-87
2021/03/24 02:32:18;;;;;;;22.30;10.20;;;9.70;44.30;;;;;;5081179;28;20494;-87
2021/03/24 02:34:47;;;;;;;21.17;11.80;;;10.00;42.80;;;;;;5078647;28;20447;-87
2021/03/24 02:37:14;;;;;;;19.67;12.90;;;10.00;39.50;;;;;;5077500;28;20455;-87
2021/03/24 02:39:43;;;;;;;17.27;10.10;;;9.70;39.30;;;;;;5077144;28;20762;-87
2021/03/24 02:42:12;;;;;;;16.77;10.30;;;9.60;43.20;;;;;;5077190;28;20548;-87
2021/03/24 02:44:41;;;;;;;13.70;9.80;;;9.80;43.60;;;;;;5088892;28;20463;-87
2021/03/24 02:47:09;;;;;;;12.50;8.30;;;10.20;43.20;;;;;;5082843;28;20450;-87
2021/03/24 02:49:38;;;;;;;16.83;9.10;;;10.50;42.60;;;;;;5077583;28;20447;-87
2021/03/24 02:52:06;;;;;;;18.80;10.00;;;10.80;42.10;;;;;;5076220;28;20992;-87
2021/03/24 02:54:33;;;;;;;18.33;10.20;;;11.10;41.50;;;;;;5076694;28;20502;-87
2021/03/24 02:57:01;;;;;;;18.93;10.70;;;11.10;41.00;;;;;;5077761;28;20605;-86
2021/03/24 02:59:27;;;;;;;21.83;12.00;;;11.10;39.80;;;;;;5094548;28;20470;-86
2021/03/24 03:02:05;;;;;;;19.80;10.23;;;10.40;37.90;;;;;;5096449;28;20467;-86
2021/03/24 03:04:35;;;;;;;25.10;12.03;;;9.90;41.20;;;;;;5097075;28;20423;-87
2021/03/24 03:07:06;;;;;;;21.67;11.90;;;9.60;41.60;;;;;;5096476;28;20431;-86
2021/03/24 03:09:40;;;;;;;17.90;10.63;;;9.30;41.50;;;;;;5096155;28;20388;-87
2021/03/24 03:12:15;;;;;;;25.37;12.67;;;9.60;43.20;;;;;;5088596;28;20511;-87
2021/03/24 03:14:47;;;;;;;17.53;11.50;;;9.00;39.80;;;;;;5080121;28;20423;-87
2021/03/24 03:17:18;;;;;;;17.40;10.17;;;8.60;41.30;;;;;;5078093;28;20922;-87
2021/03/24 03:19:53;;;;;;;16.50;10.77;;;9.00;43.70;;;;;;5078245;28;20428;-86
2021/03/24 03:22:21;;;;;;;19.60;12.03;;;9.50;43.70;;;;;;5075758;28;20550;-87
2021/03/24 03:24:52;;;;;;;28.77;10.30;;;10.20;40.70;;;;;;5076748;28;20451;-87
2021/03/24 03:27:21;;;;;;;15.67;10.23;;;10.10;42.00;;;;;;5087556;28;20411;-87
2021/03/24 03:29:50;;;;;;;16.90;10.13;;;10.40;41.80;;;;;;5082538;28;20455;-87
2021/03/24 03:32:20;;;;;;;18.10;10.27;;;10.40;40.00;;;;;;5075328;28;20482;-87
2021/03/24 03:34:52;;;;;;;20.83;10.80;;;10.40;41.00;;;;;;5075381;28;20854;-87
2021/03/24 03:37:19;;;;;;;16.57;9.90;;;9.80;41.50;;;;;;5074672;28;20427;-87
2021/03/24 03:39:48;;;;;;;19.00;10.83;;;9.70;41.10;;;;;;5076550;28;20478;-87
2021/03/24 03:42:16;;;;;;;18.70;11.87;;;9.10;39.50;;;;;;5089372;28;20495;-87
2021/03/24 03:44:43;;;;;;;18.47;11.10;;;8.20;42.70;;;;;;5089288;28;20443;-87
2021/03/24 03:47:12;;;;;;;19.13;12.13;;;8.10;43.60;;;;;;5089853;28;20454;-87
2021/03/24 03:49:41;;;;;;;24.83;14.23;;;7.50;44.10;;;;;;5080743;28;20482;-87
2021/03/24 03:52:27;;;;;;;24.77;10.90;;;7.40;45.40;;;;;;5079004;28;20968;-86
2021/03/24 03:55:03;;;;;;;28.50;12.60;;;6.90;44.70;;;;;;5078498;28;20537;-86
2021/03/24 03:57:35;;;;;;;24.73;13.27;;;6.70;45.90;;;;;;5078439;28;20439;-87
2021/03/24 04:00:11;;;;;;;22.60;12.87;;;5.90;45.10;;;;;;5077769;28;20961;-87
2021/03/24 04:02:44;;;;;;;21.50;13.23;;;6.50;46.60;;;;;;5077750;28;20465;-87
2021/03/24 04:05:18;;;;;;;24.10;12.23;;;7.50;46.00;;;;;;5077653;28;20459;-87
2021/03/24 04:07:48;;;;;;;25.07;11.93;;;7.60;44.60;;;;;;5077571;28;20772;-86
2021/03/24 04:10:16;;;;;;;21.10;11.80;;;7.30;43.20;;;;;;5087532;28;20426;-86
2021/03/24 04:12:42;;;;;;;19.17;12.43;;;6.70;45.10;;;;;;5084495;28;20605;-86
2021/03/24 04:15:13;;;;;;;17.37;11.60;;;7.40;47.50;;;;;;5077500;28;20439;-86
2021/03/24 04:17:46;;;;;;;21.10;11.67;;;7.90;46.20;;;;;;5077797;28;20493;-86
2021/03/24 04:20:16;;;;;;;20.70;11.80;;;8.60;45.50;;;;;;5077315;28;20809;-87
2021/03/24 04:22:44;;;;;;;30.30;15.03;;;9.10;44.10;;;;;;5077385;28;20558;-87
2021/03/24 04:25:16;;;;;;;19.67;12.03;;;8.90;41.00;;;;;;5077349;28;20586;-87
2021/03/24 04:27:46;;;;;;;20.10;10.33;;;8.50;42.60;;;;;;5077249;28;20436;-87
2021/03/24 04:30:16;;;;;;;24.30;11.80;;;8.60;45.40;;;;;;5077005;28;20527;-87
2021/03/24 04:32:42;;;;;;;20.57;10.63;;;8.80;44.00;;;;;;5076923;28;20612;-87
2021/03/24 04:35:14;;;;;;;15.90;10.60;;;9.10;43.70;;;;;;5077137;28;20432;-87
2021/03/24 04:37:44;;;;;;;38.23;11.87;;;9.10;42.40;;;;;;5077740;28;20432;-87
2021/03/24 04:40:17;;;;;;;20.03;11.63;;;9.50;45.10;;;;;;5077488;28;20482;-87
2021/03/24 04:42:48;;;;;;;21.07;10.17;;;10.10;42.90;;;;;;5077045;28;20471;-87
2021/03/24 04:45:24;;;;;;;22.27;13.37;;;10.20;41.50;;;;;;5077515;28;20857;-87
2021/03/24 04:47:54;;;;;;;21.80;11.97;;;9.90;40.20;;;;;;5077642;28;20431;-87
2021/03/24 04:50:25;;;;;;;17.63;10.10;;;9.40;41.80;;;;;;5081745;28;20483;-87
2021/03/24 04:52:54;;;;;;;16.13;9.77;;;9.30;43.20;;;;;;5079038;28;21036;-87
2021/03/24 04:55:25;;;;;;;16.90;10.97;;;9.70;44.10;;;;;;5084901;28;20439;-87
2021/03/24 04:57:55;;;;;;;18.50;10.63;;;10.00;43.00;;;;;;5077099;28;20519;-87
2021/03/24 05:00:31;;;;;;;20.07;10.60;;;10.50;42.00;;;;;;5077054;28;20844;-87
2021/03/24 05:03:03;;;;;;;18.67;10.67;;;10.40;40.50;;;;;;5076693;28;20470;-87
2021/03/24 05:05:32;;;;;;;26.20;15.83;;;10.20;41.80;;;;;;5077502;28;20608;-87
2021/03/24 05:08:03;;;;;;;96.00;40.37;;;10.00;39.30;;;;;;5078111;28;20451;-86
2021/03/24 05:10:33;;;;;;;76.30;29.30;;;10.00;42.10;;;;;;5076359;28;20462;-87
2021/03/24 05:13:07;;;;;;;65.03;25.87;;;10.30;42.40;;;;;;5076348;28;20514;-87
2021/03/24 05:15:36;;;;;;;23.03;13.07;;;10.40;41.30;;;;;;5077192;28;20471;-87
2021/03/24 05:18:05;;;;;;;29.50;15.30;;;10.70;41.00;;;;;;5076111;28;20479;-87
2021/03/24 05:20:37;;;;;;;39.30;15.93;;;10.40;40.90;;;;;;5076681;28;20867;-87
2021/03/24 05:23:07;;;;;;;35.13;18.23;;;10.40;40.70;;;;;;5076493;28;20459;-87
2021/03/24 05:25:38;;;;;;;37.57;17.67;;;10.30;40.90;;;;;;5076279;28;20965;-87
2021/03/24 05:28:09;;;;;;;37.77;17.40;;;10.20;40.50;;;;;;5076088;28;20530;-87
2021/03/24 05:30:39;;;;;;;39.03;18.60;;;10.10;40.50;;;;;;5075843;28;20882;-87
2021/03/24 05:33:13;;;;;;;30.70;16.50;;;10.20;41.00;;;;;;5075722;28;20570;-87
2021/03/24 05:35:51;;;;;;;28.80;15.97;;;10.20;42.10;;;;;;5076040;28;20548;-87
2021/03/24 05:38:20;;;;;;;36.57;15.10;;;10.50;41.60;;;;;;5075966;28;20768;-87
2021/03/24 05:41:10;;;;;;;32.77;16.40;;;10.60;41.50;;;;;;5075645;28;20526;-87
2021/03/24 05:44:11;;;;;;;34.77;14.90;;;10.60;41.50;;;;;;5065438;28;20443;-87
2021/03/24 05:46:59;;;;;;;29.20;14.73;;;10.80;40.10;;;;;;5075635;28;20534;-87
2021/03/24 05:49:37;;;;;;;24.03;14.40;;;11.10;40.00;;;;;;5075722;28;20467;-86
2021/03/24 05:52:18;;;;;;;25.70;13.90;;;11.30;36.60;;;;;;5075922;28;20483;-87
2021/03/24 05:55:00;;;;;;;24.23;14.60;;;11.10;35.70;;;;;;5075644;28;20428;-87
2021/03/24 05:58:15;;;;;;;23.70;14.17;;;10.60;36.00;;;;;;5074906;28;20518;-87
2021/03/24 06:00:47;;;;;;;19.70;12.80;;;10.70;36.50;;;;;;5035526;28;20443;-87
2021/03/24 06:03:28;;;;;;;27.27;14.40;;;10.50;34.70;;;;;;5074952;28;20835;-87
2021/03/24 06:06:17;;;;;;;23.40;13.77;;;10.90;36.20;;;;;;5076178;28;20522;-87
2021/03/24 06:09:24;;;;;;;24.23;12.97;;;11.10;35.20;;;;;;5075122;28;20465;-87
2021/03/24 06:12:16;;;;;;;22.70;12.93;;;11.50;34.00;;;;;;5054739;28;20489;-87
2021/03/24 06:15:06;;;;;;;22.10;13.60;;;11.80;33.60;;;;;;5075569;28;20443;-87
2021/03/24 06:17:59;;;;;;;26.97;15.67;;;13.20;31.10;;;;;;5074768;28;20470;-87
2021/03/24 06:20:39;;;;;;;21.90;13.63;;;12.50;30.50;;;;;;5074992;28;20495;-87
2021/03/24 06:23:41;;;;;;;26.70;14.70;;;12.40;31.00;;;;;;5075040;28;20468;-87
2021/03/24 06:26:34;;;;;;;20.57;12.70;;;13.40;30.20;;;;;;5074759;28;20466;-87
2021/03/24 06:29:07;;;;;;;24.67;14.50;;;13.30;32.00;;;;;;5074593;28;20966;-87
2021/03/24 06:31:46;;;;;;;23.97;14.00;;;13.50;30.30;;;;;;5075000;28;20511;-87
2021/03/24 06:34:31;;;;;;;21.07;13.67;;;14.00;30.00;;;;;;5074895;28;20474;-87
2021/03/24 06:37:33;;;;;;;30.97;15.43;;;14.20;29.30;;;;;;5075344;28;20556;-87
2021/03/24 06:40:18;;;;;;;30.30;15.33;;;13.90;29.00;;;;;;5040531;28;20512;-87
2021/03/24 06:42:57;;;;;;;25.43;14.10;;;13.70;29.80;;;;;;5074347;28;21064;-87
2021/03/24 06:45:43;;;;;;;29.23;14.70;;;13.50;29.60;;;;;;5074815;28;20779;-87
2021/03/24 06:48:29;;;;;;;23.03;13.43;;;13.40;30.30;;;;;;5074678;28;20462;-87
2021/03/24 06:51:22;;;;;;;23.40;13.87;;;13.40;29.50;;;;;;5074125;28;20914;-87
2021/03/24 06:54:30;;;;;;;25.60;13.43;;;13.50;29.90;;;;;;5074086;28;20873;-87
2021/03/24 06:57:24;;;;;;;20.93;14.30;;;13.70;30.90;;;;;;5055748;28;20536;-87
2021/03/24 07:00:11;;;;;;;22.87;13.87;;;13.70;29.70;;;;;;5073226;28;20541;-87
2021/03/24 07:03:29;;;;;;;20.90;12.60;;;13.90;30.20;;;;;;5074304;28;20470;-87
2021/03/24 07:06:20;;;;;;;22.83;13.80;;;14.20;29.70;;;;;;5074997;28;20869;-87
2021/03/24 07:08:55;;;;;;;23.17;12.10;;;14.60;29.50;;;;;;5074072;28;20519;-87
2021/03/24 07:11:46;;;;;;;27.37;13.30;;;14.30;29.00;;;;;;5074118;28;20467;-87
2021/03/24 07:14:34;;;;;;;23.23;13.53;;;14.20;29.40;;;;;;5074051;28;20976;-87
2021/03/24 07:17:24;;;;;;;24.40;14.87;;;13.90;30.60;;;;;;5073695;28;20452;-87
2021/03/24 07:20:15;;;;;;;23.87;14.30;;;13.60;30.60;;;;;;5073676;28;20494;-87
2021/03/24 07:23:05;;;;;;;27.10;14.70;;;13.80;31.50;;;;;;5075227;28;20546;-87
2021/03/24 07:25:44;;;;;;;27.67;14.73;;;13.90;30.60;;;;;;5078319;28;20542;-87
2021/03/24 07:28:27;;;;;;;27.67;14.80;;;13.70;30.50;;;;;;5078038;28;20440;-87
2021/03/24 07:31:16;;;;;;;26.27;14.73;;;13.20;31.00;;;;;;5078022;28;20443;-87
2021/03/24 07:33:50;;;;;;;23.40;15.00;;;13.70;30.50;;;;;;5078210;28;20554;-87
2021/03/24 07:36:39;;;;;;;22.00;13.30;;;14.30;30.20;;;;;;5077978;28;20464;-87
2021/03/24 07:39:21;;;;;;;38.53;15.50;;;15.20;28.00;;;;;;5078342;28;20483;-88
2021/03/24 07:42:23;;;;;;;29.80;16.03;;;16.80;26.90;;;;;;5078154;28;20510;-88
2021/03/24 07:45:29;;;;;;;25.37;15.37;;;16.40;26.00;;;;;;5079554;28;20967;-87
2021/03/24 07:48:21;;;;;;;22.80;14.07;;;16.50;26.40;;;;;;5079678;28;20770;-87
2021/03/24 07:50:58;;;;;;;30.97;16.80;;;16.50;26.90;;;;;;5081452;28;20438;-87
2021/03/24 07:53:35;;;;;;;27.00;15.60;;;15.60;26.80;;;;;;5078211;28;20827;-87
2021/03/24 07:56:10;;;;;;;21.80;13.00;;;15.40;26.70;;;;;;5078499;28;20463;-87
2021/03/24 07:59:17;;;;;;;29.77;15.50;;;16.50;29.00;;;;;;5078281;28;20427;-87
2021/03/24 08:01:57;;;;;;;27.27;13.70;;;18.20;25.60;;;;;;5078659;28;20463;-88
2021/03/24 08:04:36;;;;;;;30.83;14.57;;;17.00;26.50;;;;;;5078306;28;20411;-87
2021/03/24 08:07:15;;;;;;;27.97;15.90;;;16.80;26.40;;;;;;5077982;28;20470;-87
2021/03/24 08:09:51;;;;;;;31.17;15.47;;;16.10;26.30;;;;;;5077848;28;20411;-87
2021/03/24 08:12:30;;;;;;;29.87;15.30;;;15.30;27.60;;;;;;5078058;28;20462;-87
2021/03/24 08:15:13;;;;;;;21.77;13.70;;;15.50;26.80;;;;;;5077388;28;20932;-87
2021/03/24 08:17:49;;;;;;;26.30;16.60;;;15.90;27.00;;;;;;5078755;28;20452;-87
2021/03/24 08:20:34;;;;;;;27.60;16.03;;;16.10;25.90;;;;;;5077000;28;20477;-87
2021/03/24 08:23:35;;;;;;;29.77;16.10;;;15.40;26.90;;;;;;5060453;28;20495;-87
2021/03/24 08:26:12;;;;;;;32.70;15.60;;;15.60;26.80;;;;;;5077863;28;20432;-87
2021/03/24 08:28:45;;;;;;;26.87;15.70;;;15.70;26.90;;;;;;5078294;28;20462;-87
2021/03/24 08:31:50;;;;;;;26.33;15.13;;;15.30;27.50;;;;;;5079796;28;20450;-87
2021/03/24 08:34:49;;;;;;;34.30;16.93;;;14.90;28.70;;;;;;5077265;28;20535;-87
2021/03/24 08:37:43;;;;;;;38.87;17.60;;;15.50;27.20;;;;;;5077633;28;20886;-87
2021/03/24 08:40:42;;;;;;;27.23;16.07;;;14.20;28.20;;;;;;5085264;28;20841;-87
2021/03/24 08:43:36;;;;;;;31.17;17.47;;;14.00;29.40;;;;;;5063740;28;20475;-87
2021/03/24 08:46:11;;;;;;;29.50;17.57;;;14.20;29.30;;;;;;5087318;28;20412;-88
2021/03/24 08:48:45;;;;;;;29.83;16.67;;;14.60;29.00;;;;;;5079310;28;20510;-88
2021/03/24 08:51:19;;;;;;;33.30;17.10;;;14.50;29.00;;;;;;5077909;28;20446;-87
2021/03/24 08:53:58;;;;;;;21.73;14.10;;;14.70;29.20;;;;;;5077349;28;20820;-88
2021/03/24 08:56:35;;;;;;;28.30;16.83;;;14.60;30.70;;;;;;5076646;28;20408;-88
2021/03/24 08:59:17;;;;;;;35.60;15.93;;;14.50;28.90;;;;;;5076221;28;20441;-88
2021/03/24 09:02:01;;;;;;;29.90;16.10;;;14.30;30.20;;;;;;5077206;28;20500;-87
2021/03/24 09:04:51;;;;;;;32.50;16.70;;;13.80;29.90;;;;;;5078514;28;20429;-87
2021/03/24 09:07:29;;;;;;;30.30;17.07;;;13.80;30.30;;;;;;5076640;28;20500;-87
2021/03/24 09:10:21;;;;;;;36.10;17.40;;;13.40;31.20;;;;;;5076776;28;20424;-87
2021/03/24 09:12:52;;;;;;;33.40;17.90;;;13.40;31.80;;;;;;5077677;28;20487;-87
2021/03/24 09:15:23;;;;;;;30.03;15.83;;;13.60;30.60;;;;;;5076478;28;20459;-87
2021/03/24 09:18:01;;;;;;;30.17;16.83;;;13.70;31.50;;;;;;5076396;28;20439;-87
2021/03/24 09:20:56;;;;;;;39.17;18.83;;;13.20;31.00;;;;;;5075954;28;20431;-88
2021/03/24 09:23:56;;;;;;;30.40;17.90;;;12.50;32.20;;;;;;5075552;28;20469;-87
2021/03/24 09:26:42;;;;;;;32.20;15.80;;;12.60;31.80;;;;;;5075606;28;20519;-87
2021/03/24 09:29:26;;;;;;;29.47;15.50;;;13.10;31.40;;;;;;5076632;28;20463;-87
2021/03/24 09:32:31;;;;;;;33.93;16.10;;;13.20;32.00;;;;;;5075805;28;20860;-87
2021/03/24 09:35:20;;;;;;;17.13;10.30;;;13.40;31.20;;;;;;5076478;28;20454;-87
2021/03/24 09:37:50;;;;;;;32.80;15.77;;;13.40;33.10;;;;;;5076256;28;20416;-87
2021/03/24 09:40:32;;;;;;;30.80;16.00;;;13.10;31.10;;;;;;5076048;28;20526;-87
2021/03/24 09:43:01;;;;;;;25.77;15.27;;;13.10;33.50;;;;;;5075296;28;20686;-87
2021/03/24 09:45:33;;;;;;;29.10;14.67;;;13.50;31.30;;;;;;5074379;28;20559;-87
2021/03/24 09:48:07;;;;;;;35.50;16.33;;;13.70;31.50;;;;;;5075078;28;20462;-87
2021/03/24 09:50:41;;;;;;;28.93;15.33;;;13.20;32.10;;;;;;5075977;28;20504;-87
2021/03/24 09:53:18;;;;;;;27.70;13.80;;;13.10;32.30;;;;;;5074706;28;20486;-87
2021/03/24 09:55:46;;;;;;;29.80;14.80;;;13.60;32.90;;;;;;5075290;28;20427;-87
2021/03/24 09:58:56;;;;;;;31.10;16.00;;;13.50;32.10;;;;;;5074934;28;20452;-87
2021/03/24 10:01:50;;;;;;;34.17;16.03;;;13.20;32.40;;;;;;5054541;28;20550;-87
2021/03/24 10:04:25;;;;;;;40.30;16.00;;;13.20;32.60;;;;;;5074671;28;20475;-87
2021/03/24 10:07:01;;;;;;;34.50;15.90;;;13.40;33.10;;;;;;5075058;28;20467;-87
2021/03/24 10:09:35;;;;;;;29.40;15.10;;;13.30;33.20;;;;;;5074901;28;20432;-87
2021/03/24 10:12:14;;;;;;;21.63;12.30;;;13.60;33.50;;;;;;5075564;28;20471;-88
2021/03/24 10:14:50;;;;;;;21.50;12.93;;;13.70;34.10;;;;;;5074682;28;21010;-87
2021/03/24 10:17:23;;;;;;;26.80;15.17;;;14.10;31.90;;;;;;5075376;28;20892;-87
2021/03/24 10:19:57;;;;;;;21.43;12.93;;;14.30;32.10;;;;;;5076404;28;20468;-87
2021/03/24 10:22:32;;;;;;;22.70;13.97;;;14.30;31.70;;;;;;5075931;28;20463;-87
2021/03/24 10:25:06;;;;;;;25.70;15.27;;;13.90;31.70;;;;;;5075574;28;20423;-88
2021/03/24 10:27:33;;;;;;;18.93;10.23;;;14.10;31.90;;;;;;5076680;28;20556;-87
2021/03/24 10:30:25;;;;;;;24.10;11.37;;;14.00;33.50;;;;;;5076167;28;20874;-88
2021/03/24 10:33:08;;;;;;;25.77;12.63;;;14.30;32.10;;;;;;5076033;28;20482;-88
2021/03/24 10:35:39;;;;;;;24.40;12.50;;;13.90;32.20;;;;;;5075876;28;20461;-88
2021/03/24 10:38:20;;;;;;;27.40;13.20;;;14.40;31.60;;;;;;5075892;28;20727;-87
2021/03/24 10:40:52;;;;;;;26.37;15.63;;;14.60;31.00;;;;;;5075446;28;20432;-88
2021/03/24 10:43:27;;;;;;;21.90;13.00;;;14.70;30.90;;;;;;5079983;28;20977;-88
2021/03/24 10:46:07;;;;;;;23.50;13.63;;;14.70;30.60;;;;;;5078094;28;20467;-88
2021/03/24 10:48:43;;;;;;;30.23;13.33;;;14.50;31.00;;;;;;5095159;28;20428;-87
2021/03/24 10:51:13;;;;;;;17.90;10.23;;;14.80;30.90;;;;;;5096493;28;20449;-87
2021/03/24 10:53:41;;;;;;;27.57;14.30;;;15.50;31.70;;;;;;5097696;28;20579;-87
2021/03/24 10:56:26;;;;;;;20.97;9.40;;;15.60;30.00;;;;;;5097966;28;20447;-87
2021/03/24 10:59:00;;;;;;;22.27;11.60;;;15.80;30.50;;;;;;5098131;28;20486;-87
2021/03/24 11:01:32;;;;;;;18.73;10.80;;;15.70;30.50;;;;;;5090559;28;20498;-87
2021/03/24 11:04:16;;;;;;;27.17;13.47;;;15.80;30.80;;;;;;5089101;28;20458;-87
2021/03/24 11:06:53;;;;;;;22.70;12.77;;;15.70;30.30;;;;;;5089292;28;20916;-88
2021/03/24 11:09:23;;;;;;;21.20;12.43;;;15.60;29.90;;;;;;5093784;28;20431;-88
2021/03/24 11:11:52;;;;;;;17.50;10.93;;;15.80;29.60;;;;;;5095354;28;20534;-87
2021/03/24 11:14:23;;;;;;;24.07;12.23;;;15.60;29.80;;;;;;5096418;28;20477;-87
2021/03/24 11:16:55;;;;;;;25.90;13.80;;;15.50;29.90;;;;;;5092679;28;20427;-87
2021/03/24 11:19:27;;;;;;;25.53;12.87;;;15.30;30.40;;;;;;5075151;28;20443;-88
2021/03/24 11:22:16;;;;;;;23.80;12.37;;;15.60;30.50;;;;;;5074782;28;20509;-87
2021/03/24 11:24:52;;;;;;;25.23;12.80;;;15.70;30.20;;;;;;5074151;28;20447;-87
2021/03/24 11:27:22;;;;;;;20.13;11.63;;;16.20;29.80;;;;;;5074688;28;20482;-87
2021/03/24 11:29:57;;;;;;;21.23;11.57;;;15.80;29.50;;;;;;5074767;28;20923;-87
2021/03/24 11:32:39;;;;;;;23.87;12.90;;;15.40;30.70;;;;;;5074857;28;20519;-88
2021/03/24 11:35:19;;;;;;;22.70;11.80;;;15.60;30.70;;;;;;5074385;28;20443;-87
2021/03/24 11:37:52;;;;;;;16.97;10.43;;;16.00;31.00;;;;;;5074012;28;20526;-87
2021/03/24 11:40:27;;;;;;;22.13;13.30;;;15.90;30.60;;;;;;5074449;28;20498;-88
2021/03/24 11:43:00;;;;;;;21.57;11.60;;;15.70;30.50;;;;;;5073638;28;20561;-88
2021/03/24 11:45:30;;;;;;;14.40;9.80;;;15.80;30.20;;;;;;5074336;28;20562;-88
2021/03/24 11:48:20;;;;;;;21.23;11.50;;;16.00;30.60;;;;;;5074063;28;20424;-87
2021/03/24 11:50:57;;;;;;;16.50;10.40;;;16.60;29.70;;;;;;5084173;28;20443;-87
2021/03/24 11:53:34;;;;;;;18.30;10.60;;;16.60;29.20;;;;;;5097148;28;20463;-87
2021/03/24 11:56:11;;;;;;;19.70;10.80;;;16.00;29.30;;;;;;5097085;28;20466;-87
2021/03/24 11:58:46;;;;;;;16.47;11.17;;;16.00;29.80;;;;;;5097187;28;20435;-87
2021/03/24 12:01:38;;;;;;;20.70;10.77;;;16.30;28.50;;;;;;5088504;28;20458;-87
2021/03/24 12:04:37;;;;;;;25.90;9.67;;;16.50;27.90;;;;;;5074065;28;20845;-87
2021/03/24 12:07:16;;;;;;;12.27;7.70;;;16.80;27.70;;;;;;5068655;28;20872;-87
2021/03/24 12:09:42;;;;;;;11.00;7.83;;;16.80;27.90;;;;;;5077291;28;20447;-87
2021/03/24 12:12:16;;;;;;;14.33;8.07;;;17.00;27.80;;;;;;5077619;28;20868;-87
2021/03/24 12:14:44;;;;;;;14.67;8.17;;;16.80;28.00;;;;;;5077311;28;20550;-87
2021/03/24 12:17:26;;;;;;;11.27;6.13;;;17.10;27.70;;;;;;5077326;28;20516;-87
2021/03/24 12:19:52;;;;;;;19.03;7.83;;;16.90;27.70;;;;;;5077221;28;20479;-87
2021/03/24 12:22:27;;;;;;;10.00;6.27;;;17.30;27.20;;;;;;5077270;28;20495;-88
2021/03/24 12:25:04;;;;;;;13.53;6.60;;;17.50;27.50;;;;;;5077464;28;20449;-87
2021/03/24 12:27:33;;;;;;;10.87;6.63;;;17.70;26.90;;;;;;5076989;28;20478;-87
2021/03/24 12:30:04;;;;;;;9.70;6.27;;;17.70;27.00;;;;;;5077328;28;20453;-87
2021/03/24 12:32:34;;;;;;;15.50;6.70;;;17.80;25.90;;;;;;5077135;28;20489;-88
2021/03/24 12:35:01;;;;;;;19.50;7.20;;;17.90;25.20;;;;;;5077311;28;20526;-87
2021/03/24 12:37:32;;;;;;;7.90;5.17;;;17.70;25.50;;;;;;5077246;28;20428;-87
2021/03/24 12:40:08;;;;;;;8.33;4.87;;;17.60;27.40;;;;;;5077596;28;20514;-87
2021/03/24 12:42:35;;;;;;;11.53;7.70;;;18.00;26.40;;;;;;5077065;28;20558;-88
2021/03/24 12:45:22;;;;;;;13.20;7.07;;;17.70;25.70;;;;;;5076720;28;20471;-88
2021/03/24 12:47:50;;;;;;;11.43;6.87;;;17.70;25.60;;;;;;5076184;28;20474;-87
2021/03/24 12:50:28;;;;;;;14.57;7.17;;;18.10;26.30;;;;;;5076768;28;20475;-87
2021/03/24 12:53:07;;;;;;;16.30;7.13;;;18.20;26.30;;;;;;5076399;28;20451;-87
2021/03/24 12:55:35;;;;;;;11.80;7.27;;;18.10;26.60;;;;;;5076877;28;20427;-87
2021/03/24 12:58:19;;;;;;;12.60;7.93;;;18.10;25.90;;;;;;5077395;28;20455;-87
2021/03/24 13:00:58;;;;;;;11.50;7.33;;;18.30;25.90;;;;;;5078739;28;20454;-87
2021/03/24 13:04:10;;;;;;;13.93;8.40;;;18.10;26.20;;;;;;5078611;28;20424;-87
2021/03/24 13:06:52;;;;;;;12.40;7.10;;;17.50;26.40;;;;;;4995042;28;20439;-87
2021/03/24 13:09:28;;;;;;;13.40;7.63;;;17.80;26.70;;;;;;5075420;28;20545;-88
2021/03/24 13:12:05;;;;;;;10.47;6.83;;;18.20;26.00;;;;;;5076663;28;20501;-87
2021/03/24 13:14:51;;;;;;;12.57;7.30;;;18.50;25.80;;;;;;5076620;28;20471;-88
2021/03/24 13:17:27;;;;;;;9.80;6.40;;;18.30;25.00;;;;;;5076189;28;20495;-88